sensor_id;sensor_type;location;lat;lon;timestamp;pressure;altitude;pressure_sealevel;temperature;humidity
250;BME280;109;19.806;-70.704;2023-02-22T00:00:43;101769.47;;;23.19;65.83
250;BME280;109;19.806;-70.704;2023-02-22T00:03:18;101775.28;;;23.32;66.24
250;BME280;109;19.806;-70.704;2023-02-22T00:05:55;101784.47;;;23.23;65.70
250;BME280;109;19.806;-70.704;2023-02-22T00:08:25;101783.31;;;23.32;65.58
250;BME280;109;19.806;-70.704;2023-02-22T00:10:59;101789.47;;;23.34;65.38
250;BME280;109;19.806;-70.704;2023-02-22T00:13:26;101799.38;;;23.30;65.74
250;BME280;109;19.806;-70.704;2023-02-22T00:15:57;101798.94;;;23.16;66.06
250;BME280;109;19.806;-70.704;2023-02-22T00:18:25;101802.44;;;23.18;66.14
250;BME280;109;19.806;-70.704;2023-02-22T00:20:58;101806.09;;;23.44;66.29
250;BME280;109;19.806;-70.704;2023-02-22T00:23:29;101812.25;;;23.46;65.95
250;BME280;109;19.806;-70.704;2023-02-22T00:25:57;101825.72;;;23.43;65.91
250;BME280;109;19.806;-70.704;2023-02-22T00:28:24;101833.06;;;23.36;66.83
250;BME280;109;19.806;-70.704;2023-02-22T00:30:52;101834.84;;;23.35;66.33
250;BME280;109;19.806;-70.704;2023-02-22T00:33:21;101838.69;;;23.27;65.70
250;BME280;109;19.806;-70.704;2023-02-22T00:35:48;101849.41;;;23.25;65.61
250;BME280;109;19.806;-70.704;2023-02-22T00:38:17;101854.94;;;23.19;65.90
250;BME280;109;19.806;-70.704;2023-02-22T00:40:44;101850.97;;;23.32;65.26
250;BME280;109;19.806;-70.704;2023-02-22T00:43:17;101863.66;;;23.26;65.06
250;BME280;109;19.806;-70.704;2023-02-22T00:45:43;101872.78;;;23.17;64.47
250;BME280;109;19.806;-70.704;2023-02-22T00:48:17;101878.13;;;23.17;64.50
250;BME280;109;19.806;-70.704;2023-02-22T00:50:44;101879.75;;;23.23;64.60
250;BME280;109;19.806;-70.704;2023-02-22T00:53:20;101886.53;;;23.34;64.92
250;BME280;109;19.806;-70.704;2023-02-22T00:55:47;101891.72;;;23.41;65.17
250;BME280;109;19.806;-70.704;2023-02-22T00:58:23;101887.06;;;23.46;65.72
250;BME280;109;19.806;-70.704;2023-02-22T01:00:49;101894.03;;;23.51;65.65
250;BME280;109;19.806;-70.704;2023-02-22T01:03:22;101905.16;;;23.38;64.75
250;BME280;109;19.806;-70.704;2023-02-22T01:05:49;101908.50;;;23.44;65.02
250;BME280;109;19.806;-70.704;2023-02-22T01:08:23;101904.22;;;23.39;64.88
250;BME280;109;19.806;-70.704;2023-02-22T01:10:50;101904.88;;;23.47;64.68
250;BME280;109;19.806;-70.704;2023-02-22T01:13:25;101902.31;;;23.42;64.99
250;BME280;109;19.806;-70.704;2023-02-22T01:15:51;101901.28;;;23.48;65.04
250;BME280;109;19.806;-70.704;2023-02-22T01:18:24;101895.97;;;23.46;65.09
250;BME280;109;19.806;-70.704;2023-02-22T01:20:51;101903.31;;;23.40;65.34
250;BME280;109;19.806;-70.704;2023-02-22T01:23:24;101907.66;;;23.42;65.55
250;BME280;109;19.806;-70.704;2023-02-22T01:25:51;101906.59;;;23.18;65.21
250;BME280;109;19.806;-70.704;2023-02-22T01:28:24;101910.22;;;23.16;65.21
250;BME280;109;19.806;-70.704;2023-02-22T01:30:51;101916.44;;;23.16;64.94
250;BME280;109;19.806;-70.704;2023-02-22T01:33:24;101908.53;;;23.13;65.57
250;BME280;109;19.806;-70.704;2023-02-22T01:36:07;101930.59;;;23.20;65.18
250;BME280;109;19.806;-70.704;2023-02-22T01:38:42;101923.50;;;23.19;65.04
250;BME280;109;19.806;-70.704;2023-02-22T01:41:22;101924.72;;;23.07;64.82
250;BME280;109;19.806;-70.704;2023-02-22T01:43:49;101923.56;;;23.16;64.99
250;BME280;109;19.806;-70.704;2023-02-22T01:46:28;101917.25;;;23.20;64.86
250;BME280;109;19.806;-70.704;2023-02-22T01:49:00;101916.56;;;23.13;64.96
250;BME280;109;19.806;-70.704;2023-02-22T01:51:46;101912.88;;;23.16;64.84
250;BME280;109;19.806;-70.704;2023-02-22T01:54:33;101921.13;;;23.08;64.91
250;BME280;109;19.806;-70.704;2023-02-22T01:57:19;101914.13;;;23.04;64.88
250;BME280;109;19.806;-70.704;2023-02-22T02:00:04;101925.66;;;23.06;64.61
250;BME280;109;19.806;-70.704;2023-02-22T02:02:49;101927.31;;;23.10;64.71
250;BME280;109;19.806;-70.704;2023-02-22T02:05:26;101922.97;;;23.06;64.55
250;BME280;109;19.806;-70.704;2023-02-22T02:08:20;101938.00;;;23.10;64.16
250;BME280;109;19.806;-70.704;2023-02-22T02:10:55;101921.94;;;23.12;64.23
250;BME280;109;19.806;-70.704;2023-02-22T02:13:36;101920.25;;;23.08;64.02
250;BME280;109;19.806;-70.704;2023-02-22T02:16:03;101924.81;;;23.04;64.07
250;BME280;109;19.806;-70.704;2023-02-22T02:18:43;101928.53;;;22.97;64.34
250;BME280;109;19.806;-70.704;2023-02-22T02:21:45;101935.97;;;22.86;64.42
250;BME280;109;19.806;-70.704;2023-02-22T02:25:02;101937.88;;;22.81;64.20
250;BME280;109;19.806;-70.704;2023-02-22T02:34:24;101941.53;;;22.77;64.09
250;BME280;109;19.806;-70.704;2023-02-22T02:38:16;101950.38;;;22.79;64.25
250;BME280;109;19.806;-70.704;2023-02-22T02:40:32;101956.78;;;22.73;64.21
250;BME280;109;19.806;-70.704;2023-02-22T02:49:35;101955.00;;;22.74;64.20
250;BME280;109;19.806;-70.704;2023-02-22T02:52:18;101955.84;;;22.76;64.41
250;BME280;109;19.806;-70.704;2023-02-22T02:54:54;101949.66;;;22.74;64.43
250;BME280;109;19.806;-70.704;2023-02-22T02:57:34;101958.50;;;22.76;64.37
250;BME280;109;19.806;-70.704;2023-02-22T03:00:00;101957.66;;;22.74;64.52
250;BME280;109;19.806;-70.704;2023-02-22T03:03:40;101965.81;;;22.68;64.13
250;BME280;109;19.806;-70.704;2023-02-22T03:06:44;101965.78;;;22.69;64.46
250;BME280;109;19.806;-70.704;2023-02-22T03:12:51;101969.63;;;22.59;64.30
250;BME280;109;19.806;-70.704;2023-02-22T03:15:55;101975.56;;;22.69;64.54
250;BME280;109;19.806;-70.704;2023-02-22T03:24:46;101968.66;;;22.61;64.26
250;BME280;109;19.806;-70.704;2023-02-22T03:27:44;101968.66;;;22.61;64.20
250;BME280;109;19.806;-70.704;2023-02-22T03:30:26;101959.66;;;22.64;64.29
250;BME280;109;19.806;-70.704;2023-02-22T03:36:21;101958.94;;;22.59;64.62
250;BME280;109;19.806;-70.704;2023-02-22T03:38:57;101956.34;;;22.56;64.49
250;BME280;109;19.806;-70.704;2023-02-22T03:41:38;101957.19;;;22.58;64.44
250;BME280;109;19.806;-70.704;2023-02-22T03:44:08;101958.94;;;22.59;64.26
250;BME280;109;19.806;-70.704;2023-02-22T03:46:53;101953.66;;;22.56;64.71
250;BME280;109;19.806;-70.704;2023-02-22T03:52:12;101947.47;;;22.55;64.88
250;BME280;109;19.806;-70.704;2023-02-22T03:54:40;101948.38;;;22.54;64.61
250;BME280;109;19.806;-70.704;2023-02-22T03:57:26;101940.38;;;22.54;64.75
250;BME280;109;19.806;-70.704;2023-02-22T04:00:17;101936.69;;;22.60;64.96
250;BME280;109;19.806;-70.704;2023-02-22T04:03:04;101940.22;;;22.60;64.61
250;BME280;109;19.806;-70.704;2023-02-22T04:05:38;101932.22;;;22.60;64.71
250;BME280;109;19.806;-70.704;2023-02-22T04:08:21;101929.63;;;22.57;64.63
250;BME280;109;19.806;-70.704;2023-02-22T04:10:47;101935.84;;;22.58;64.84
250;BME280;109;19.806;-70.704;2023-02-22T04:13:29;101924.25;;;22.59;64.73
250;BME280;109;19.806;-70.704;2023-02-22T04:16:09;101934.06;;;22.57;64.69
250;BME280;109;19.806;-70.704;2023-02-22T04:18:35;101931.63;;;22.49;64.51
250;BME280;109;19.806;-70.704;2023-02-22T04:21:17;101927.03;;;22.54;64.81
250;BME280;109;19.806;-70.704;2023-02-22T04:23:46;101926.94;;;22.57;64.75
250;BME280;109;19.806;-70.704;2023-02-22T04:26:27;101931.41;;;22.57;64.61
250;BME280;109;19.806;-70.704;2023-02-22T04:28:59;101929.00;;;22.48;64.53
250;BME280;109;19.806;-70.704;2023-02-22T04:31:49;101935.09;;;22.51;64.79
250;BME280;109;19.806;-70.704;2023-02-22T04:34:28;101922.63;;;22.52;64.47
250;BME280;109;19.806;-70.704;2023-02-22T04:37:09;101914.78;;;22.47;64.60
250;BME280;109;19.806;-70.704;2023-02-22T04:39:35;101919.06;;;22.53;64.65
250;BME280;109;19.806;-70.704;2023-02-22T04:42:16;101915.50;;;22.52;64.46
250;BME280;109;19.806;-70.704;2023-02-22T04:44:44;101919.94;;;22.53;64.33
250;BME280;109;19.806;-70.704;2023-02-22T04:47:25;101916.31;;;22.56;64.58
250;BME280;109;19.806;-70.704;2023-02-22T04:49:59;101916.53;;;22.48;64.29
250;BME280;109;19.806;-70.704;2023-02-22T04:52:39;101914.75;;;22.49;64.12
250;BME280;109;19.806;-70.704;2023-02-22T04:55:06;101910.31;;;22.48;64.32
250;BME280;109;19.806;-70.704;2023-02-22T04:57:49;101906.91;;;22.41;64.59
250;BME280;109;19.806;-70.704;2023-02-22T05:00:17;101899.66;;;22.48;64.77
250;BME280;109;19.806;-70.704;2023-02-22T05:03:01;101904.00;;;22.50;64.17
250;BME280;109;19.806;-70.704;2023-02-22T05:05:34;101904.09;;;22.47;64.50
250;BME280;109;19.806;-70.704;2023-02-22T05:08:14;101896.34;;;22.37;64.42
250;BME280;109;19.806;-70.704;2023-02-22T05:10:41;101902.66;;;22.33;64.42
250;BME280;109;19.806;-70.704;2023-02-22T05:13:21;101902.69;;;22.31;64.70
250;BME280;109;19.806;-70.704;2023-02-22T05:16:01;101901.75;;;22.34;64.47
250;BME280;109;19.806;-70.704;2023-02-22T05:18:29;101903.47;;;22.36;64.42
250;BME280;109;19.806;-70.704;2023-02-22T05:21:09;101899.03;;;22.37;64.41
250;BME280;109;19.806;-70.704;2023-02-22T05:23:35;101898.22;;;22.33;64.07
250;BME280;109;19.806;-70.704;2023-02-22T05:26:15;101892.00;;;22.33;64.08
250;BME280;109;19.806;-70.704;2023-02-22T05:28:42;101887.41;;;22.38;64.12
250;BME280;109;19.806;-70.704;2023-02-22T05:31:29;101885.75;;;22.34;63.71
250;BME280;109;19.806;-70.704;2023-02-22T05:34:08;101885.00;;;22.27;63.63
250;BME280;109;19.806;-70.704;2023-02-22T05:36:48;101891.09;;;22.34;63.74
250;BME280;109;19.806;-70.704;2023-02-22T05:39:15;101884.88;;;22.33;63.41
250;BME280;109;19.806;-70.704;2023-02-22T05:42:02;101880.38;;;22.35;63.52
250;BME280;109;19.806;-70.704;2023-02-22T05:44:35;101867.88;;;22.37;63.22
250;BME280;109;19.806;-70.704;2023-02-22T05:47:16;101868.06;;;22.29;63.51
250;BME280;109;19.806;-70.704;2023-02-22T05:49:43;101869.78;;;22.32;63.30
250;BME280;109;19.806;-70.704;2023-02-22T05:52:22;101866.13;;;22.36;63.49
250;BME280;109;19.806;-70.704;2023-02-22T05:54:49;101863.53;;;22.33;63.05
250;BME280;109;19.806;-70.704;2023-02-22T05:57:30;101862.63;;;22.34;63.35
250;BME280;109;19.806;-70.704;2023-02-22T05:59:57;101857.47;;;22.26;63.22
250;BME280;109;19.806;-70.704;2023-02-22T06:02:42;101860.16;;;22.25;63.06
250;BME280;109;19.806;-70.704;2023-02-22T06:05:15;101853.06;;;22.25;63.35
250;BME280;109;19.806;-70.704;2023-02-22T06:07:56;101858.34;;;22.27;63.42
250;BME280;109;19.806;-70.704;2023-02-22T06:10:24;101857.38;;;22.31;63.47
250;BME280;109;19.806;-70.704;2023-02-22T06:13:05;101852.34;;;22.19;63.31
250;BME280;109;19.806;-70.704;2023-02-22T06:15:31;101851.69;;;22.11;63.65
250;BME280;109;19.806;-70.704;2023-02-22T06:18:12;101851.72;;;22.09;63.69
250;BME280;109;19.806;-70.704;2023-02-22T06:21:00;101856.06;;;22.12;63.42
250;BME280;109;19.806;-70.704;2023-02-22T06:23:34;101851.53;;;22.15;63.29
250;BME280;109;19.806;-70.704;2023-02-22T06:26:17;101838.91;;;22.23;63.50
250;BME280;109;19.806;-70.704;2023-02-22T06:28:50;101849.72;;;22.17;63.38
250;BME280;109;19.806;-70.704;2023-02-22T06:31:37;101853.63;;;22.03;63.45
250;BME280;109;19.806;-70.704;2023-02-22T06:34:17;101839.06;;;22.17;63.48
250;BME280;109;19.806;-70.704;2023-02-22T06:36:57;101841.81;;;22.13;63.20
250;BME280;109;19.806;-70.704;2023-02-22T06:39:25;101849.00;;;22.11;63.36
250;BME280;109;19.806;-70.704;2023-02-22T06:42:05;101852.44;;;22.14;63.35
250;BME280;109;19.806;-70.704;2023-02-22T06:44:32;101856.22;;;22.07;63.22
250;BME280;109;19.806;-70.704;2023-02-22T06:47:11;101856.84;;;22.17;63.16
250;BME280;109;19.806;-70.704;2023-02-22T06:49:38;101856.03;;;22.13;63.14
250;BME280;109;19.806;-70.704;2023-02-22T06:52:18;101854.25;;;22.14;63.27
250;BME280;109;19.806;-70.704;2023-02-22T06:54:45;101854.34;;;22.11;63.42
250;BME280;109;19.806;-70.704;2023-02-22T06:57:24;101846.41;;;22.08;63.55
250;BME280;109;19.806;-70.704;2023-02-22T06:59:51;101841.16;;;22.05;63.10
250;BME280;109;19.806;-70.704;2023-02-22T07:02:30;101838.56;;;22.02;63.29
250;BME280;109;19.806;-70.704;2023-02-22T07:04:57;101834.97;;;22.03;63.22
250;BME280;109;19.806;-70.704;2023-02-22T07:07:38;101831.94;;;21.82;63.44
250;BME280;109;19.806;-70.704;2023-02-22T07:10:06;101829.19;;;21.85;63.53
250;BME280;109;19.806;-70.704;2023-02-22T07:12:46;101826.59;;;21.84;63.51
250;BME280;109;19.806;-70.704;2023-02-22T07:15:15;101811.47;;;21.84;63.50
250;BME280;109;19.806;-70.704;2023-02-22T07:18:03;101811.50;;;21.83;63.56
250;BME280;109;19.806;-70.704;2023-02-22T07:20:37;101804.28;;;21.86;63.31
250;BME280;109;19.806;-70.704;2023-02-22T07:23:17;101801.72;;;21.83;63.07
250;BME280;109;19.806;-70.704;2023-02-22T07:26:02;101797.44;;;21.75;63.53
250;BME280;109;19.806;-70.704;2023-02-22T07:28:36;101796.50;;;21.79;63.63
250;BME280;109;19.806;-70.704;2023-02-22T07:31:23;101797.31;;;21.82;63.15
250;BME280;109;19.806;-70.704;2023-02-22T07:34:02;101795.69;;;21.74;63.32
250;BME280;109;19.806;-70.704;2023-02-22T07:36:42;101791.06;;;21.83;62.95
250;BME280;109;19.806;-70.704;2023-02-22T07:39:09;101791.16;;;21.79;62.67
250;BME280;109;19.806;-70.704;2023-02-22T07:41:49;101794.53;;;21.85;63.24
250;BME280;109;19.806;-70.704;2023-02-22T07:44:23;101795.47;;;21.84;63.00
250;BME280;109;19.806;-70.704;2023-02-22T07:47:02;101784.88;;;21.81;62.93
250;BME280;109;19.806;-70.704;2023-02-22T07:49:29;101793.00;;;21.77;63.20
250;BME280;109;19.806;-70.704;2023-02-22T07:52:08;101788.75;;;21.68;63.21
250;BME280;109;19.806;-70.704;2023-02-22T07:54:35;101787.66;;;21.75;63.23
250;BME280;109;19.806;-70.704;2023-02-22T07:57:15;101783.13;;;21.80;62.99
250;BME280;109;19.806;-70.704;2023-02-22T07:59:44;101782.25;;;21.80;62.73
250;BME280;109;19.806;-70.704;2023-02-22T08:02:25;101775.25;;;21.74;63.00
250;BME280;109;19.806;-70.704;2023-02-22T08:04:52;101778.00;;;21.71;63.14
250;BME280;109;19.806;-70.704;2023-02-22T08:07:39;101774.44;;;21.72;62.78
250;BME280;109;19.806;-70.704;2023-02-22T08:10:15;101779.00;;;21.67;63.32
250;BME280;109;19.806;-70.704;2023-02-22T08:12:57;101777.91;;;21.76;62.63
250;BME280;109;19.806;-70.704;2023-02-22T08:15:29;101769.31;;;21.63;63.36
250;BME280;109;19.806;-70.704;2023-02-22T08:18:13;101775.66;;;21.59;63.06
250;BME280;109;19.806;-70.704;2023-02-22T08:20:53;101772.19;;;21.55;63.45
250;BME280;109;19.806;-70.704;2023-02-22T08:23:22;101779.09;;;21.63;62.92
250;BME280;109;19.806;-70.704;2023-02-22T08:26:06;101777.19;;;21.68;63.02
250;BME280;109;19.806;-70.704;2023-02-22T08:28:32;101779.91;;;21.66;62.75
250;BME280;109;19.806;-70.704;2023-02-22T08:31:20;101786.19;;;21.64;62.92
250;BME280;109;19.806;-70.704;2023-02-22T08:33:59;101781.63;;;21.69;62.71
250;BME280;109;19.806;-70.704;2023-02-22T08:36:41;101778.16;;;21.65;63.02
250;BME280;109;19.806;-70.704;2023-02-22T08:39:08;101782.88;;;21.54;62.81
250;BME280;109;19.806;-70.704;2023-02-22T08:41:47;101779.06;;;21.64;63.13
250;BME280;109;19.806;-70.704;2023-02-22T08:44:14;101775.72;;;21.56;62.48
250;BME280;109;19.806;-70.704;2023-02-22T08:46:55;101778.41;;;21.54;62.86
250;BME280;109;19.806;-70.704;2023-02-22T08:49:23;101775.72;;;21.56;63.08
250;BME280;109;19.806;-70.704;2023-02-22T08:52:02;101773.13;;;21.53;62.92
250;BME280;109;19.806;-70.704;2023-02-22T08:54:29;101782.69;;;21.60;62.80
250;BME280;109;19.806;-70.704;2023-02-22T08:57:08;101776.66;;;21.53;62.66
250;BME280;109;19.806;-70.704;2023-02-22T08:59:35;101779.38;;;21.50;62.99
250;BME280;109;19.806;-70.704;2023-02-22T09:02:17;101778.41;;;21.54;63.05
250;BME280;109;19.806;-70.704;2023-02-22T09:04:45;101790.97;;;21.49;62.52
250;BME280;109;19.806;-70.704;2023-02-22T09:07:33;101779.13;;;21.61;63.05
250;BME280;109;19.806;-70.704;2023-02-22T09:10:07;101789.13;;;21.51;62.65
250;BME280;109;19.806;-70.704;2023-02-22T09:12:53;101788.22;;;21.52;63.04
250;BME280;109;19.806;-70.704;2023-02-22T09:15:27;101788.19;;;21.54;63.03
250;BME280;109;19.806;-70.704;2023-02-22T09:18:11;101788.13;;;21.57;62.58
250;BME280;109;19.806;-70.704;2023-02-22T09:20:53;101792.75;;;21.49;62.82
250;BME280;109;19.806;-70.704;2023-02-22T09:23:20;101792.88;;;21.44;62.94
250;BME280;109;19.806;-70.704;2023-02-22T09:26:00;101797.34;;;21.42;63.01
250;BME280;109;19.806;-70.704;2023-02-22T09:28:26;101807.06;;;21.45;62.71
250;BME280;109;19.806;-70.704;2023-02-22T09:31:07;101794.53;;;21.48;62.63
250;BME280;109;19.806;-70.704;2023-02-22T09:33:40;101799.81;;;21.50;63.26
250;BME280;109;19.806;-70.704;2023-02-22T09:36:21;101799.03;;;21.46;62.91
250;BME280;109;19.806;-70.704;2023-02-22T09:38:49;101800.72;;;21.49;62.94
250;BME280;109;19.806;-70.704;2023-02-22T09:42:00;101809.59;;;21.49;62.82
250;BME280;109;19.806;-70.704;2023-02-22T09:47:43;101802.97;;;21.30;62.99
250;BME280;109;19.806;-70.704;2023-02-22T09:50:22;101799.41;;;21.31;63.28
250;BME280;109;19.806;-70.704;2023-02-22T09:53:31;101805.44;;;21.38;63.43
250;BME280;109;19.806;-70.704;2023-02-22T09:56:17;101806.53;;;21.29;63.28
250;BME280;109;19.806;-70.704;2023-02-22T09:58:55;101812.84;;;21.23;63.41
250;BME280;109;19.806;-70.704;2023-02-22T10:01:45;101812.97;;;21.19;63.54
250;BME280;109;19.806;-70.704;2023-02-22T10:04:38;101827.28;;;21.13;63.45
250;BME280;109;19.806;-70.704;2023-02-22T10:07:25;101829.91;;;21.16;63.38
250;BME280;109;19.806;-70.704;2023-02-22T10:10:00;101834.38;;;21.14;63.68
250;BME280;109;19.806;-70.704;2023-02-22T10:30:22;101855.47;;;21.23;63.23
250;BME280;109;19.806;-70.704;2023-02-22T10:33:19;101866.97;;;21.26;63.33
250;BME280;109;19.806;-70.704;2023-02-22T10:35:59;101872.28;;;21.26;63.18
250;BME280;109;19.806;-70.704;2023-02-22T10:38:31;101870.56;;;21.23;63.22
250;BME280;109;19.806;-70.704;2023-02-22T10:41:27;101875.19;;;21.15;63.16
250;BME280;109;19.806;-70.704;2023-02-22T10:44:01;101877.66;;;21.22;62.99
250;BME280;109;19.806;-70.704;2023-02-22T10:46:42;101873.06;;;21.31;63.06
250;BME280;109;19.806;-70.704;2023-02-22T10:49:22;101884.50;;;21.36;62.99
250;BME280;109;19.806;-70.704;2023-02-22T10:52:13;101878.31;;;21.34;62.93
250;BME280;109;19.806;-70.704;2023-02-22T10:54:45;101883.78;;;21.28;62.84
250;BME280;109;19.806;-70.704;2023-02-22T10:57:15;101886.63;;;21.20;63.00
250;BME280;109;19.806;-70.704;2023-02-22T10:59:45;101890.63;;;21.39;62.91
250;BME280;109;19.806;-70.704;2023-02-22T11:04:52;101888.13;;;21.33;62.50
250;BME280;109;19.806;-70.704;2023-02-22T11:07:24;101897.72;;;21.40;62.43
250;BME280;109;19.806;-70.704;2023-02-22T11:10:05;101903.25;;;21.31;62.47
250;BME280;109;19.806;-70.704;2023-02-22T11:12:37;101907.75;;;21.28;62.64
250;BME280;109;19.806;-70.704;2023-02-22T11:15:27;101906.06;;;21.23;62.77
250;BME280;109;19.806;-70.704;2023-02-22T11:17:56;101915.69;;;21.31;62.76
250;BME280;109;19.806;-70.704;2023-02-22T11:20:33;101921.91;;;21.30;63.12
250;BME280;109;19.806;-70.704;2023-02-22T11:23:04;101918.31;;;21.32;62.48
250;BME280;109;19.806;-70.704;2023-02-22T11:25:35;101927.97;;;21.36;62.66
250;BME280;109;19.806;-70.704;2023-02-22T11:28:15;101940.88;;;21.56;62.58
250;BME280;109;19.806;-70.704;2023-02-22T11:30:46;101928.41;;;21.58;62.34
250;BME280;109;19.806;-70.704;2023-02-22T11:33:21;101943.59;;;21.53;62.27
250;BME280;109;19.806;-70.704;2023-02-22T11:35:49;101945.31;;;21.57;62.15
250;BME280;109;19.806;-70.704;2023-02-22T11:38:29;101949.47;;;21.69;62.24
250;BME280;109;19.806;-70.704;2023-02-22T11:41:27;101954.59;;;21.79;62.32
250;BME280;109;19.806;-70.704;2023-02-22T11:44:21;101962.63;;;21.78;61.94
250;BME280;109;19.806;-70.704;2023-02-22T11:46:51;101965.22;;;21.82;62.42
250;BME280;109;19.806;-70.704;2023-02-22T11:49:23;101969.63;;;21.83;62.11
250;BME280;109;19.806;-70.704;2023-02-22T12:05:35;102004.09;;;22.29;60.80
250;BME280;109;19.806;-70.704;2023-02-22T12:11:04;102005.28;;;22.55;60.53
250;BME280;109;19.806;-70.704;2023-02-22T12:19:55;102026.97;;;22.77;60.07
250;BME280;109;19.806;-70.704;2023-02-22T12:23:35;102022.78;;;22.67;60.04
250;BME280;109;19.806;-70.704;2023-02-22T12:25:36;102025.13;;;22.79;59.86
250;BME280;109;19.806;-70.704;2023-02-22T12:28:35;102029.16;;;22.95;59.99
250;BME280;109;19.806;-70.704;2023-02-22T12:34:26;102036.69;;;23.15;58.59
250;BME280;109;19.806;-70.704;2023-02-22T12:42:05;102039.19;;;23.53;58.57
250;BME280;109;19.806;-70.704;2023-02-22T12:44:40;102035.91;;;23.42;58.01
250;BME280;109;19.806;-70.704;2023-02-22T12:47:18;102036.72;;;23.46;57.86
250;BME280;109;19.806;-70.704;2023-02-22T12:52:52;102035.63;;;23.53;57.52
250;BME280;109;19.806;-70.704;2023-02-22T12:55:43;102027.47;;;23.57;57.64
250;BME280;109;19.806;-70.704;2023-02-22T12:58:32;102032.44;;;23.71;57.43
250;BME280;109;19.806;-70.704;2023-02-22T13:01:05;102025.09;;;23.79;57.24
250;BME280;109;19.806;-70.704;2023-02-22T13:03:38;102031.81;;;23.92;56.87
250;BME280;109;19.806;-70.704;2023-02-22T13:06:24;102033.75;;;23.87;57.10
250;BME280;109;19.806;-70.704;2023-02-22T13:19:47;102047.63;;;24.57;56.00
250;BME280;109;19.806;-70.704;2023-02-22T13:22:34;102044.81;;;24.60;56.38
250;BME280;109;19.806;-70.704;2023-02-22T13:27:54;102050.53;;;25.04;55.57
250;BME280;109;19.806;-70.704;2023-02-22T13:33:14;102066.56;;;24.79;54.65
250;BME280;109;19.806;-70.704;2023-02-22T13:53:19;102087.00;;;25.34;54.44
250;BME280;109;19.806;-70.704;2023-02-22T13:55:53;102093.34;;;25.05;54.56
250;BME280;109;19.806;-70.704;2023-02-22T13:58:22;102090.59;;;25.07;53.95
250;BME280;109;19.806;-70.704;2023-02-22T14:00:57;102102.44;;;24.73;54.59
250;BME280;109;19.806;-70.704;2023-02-22T14:05:59;102102.75;;;25.17;54.65
250;BME280;109;19.806;-70.704;2023-02-22T14:16:27;102114.66;;;25.08;55.49
250;BME280;109;19.806;-70.704;2023-02-22T14:22:00;102119.31;;;25.30;53.88
250;BME280;109;19.806;-70.704;2023-02-22T14:24:46;102123.84;;;25.26;53.88
250;BME280;109;19.806;-70.704;2023-02-22T14:27:15;102123.41;;;25.14;54.68
250;BME280;109;19.806;-70.704;2023-02-22T14:29:58;102129.94;;;25.58;55.05
250;BME280;109;19.806;-70.704;2023-02-22T14:32:33;102142.00;;;25.18;55.30
250;BME280;109;19.806;-70.704;2023-02-22T14:35:09;102130.56;;;25.13;54.44
250;BME280;109;19.806;-70.704;2023-02-22T14:37:40;102133.22;;;24.87;55.39
250;BME280;109;19.806;-70.704;2023-02-22T14:40:33;102122.34;;;24.93;55.81
250;BME280;109;19.806;-70.704;2023-02-22T14:43:11;102137.38;;;24.69;55.46
250;BME280;109;19.806;-70.704;2023-02-22T14:45:48;102138.34;;;24.66;55.43
250;BME280;109;19.806;-70.704;2023-02-22T14:48:34;102133.16;;;25.16;56.26
250;BME280;109;19.806;-70.704;2023-02-22T14:51:14;102132.72;;;25.55;54.85
250;BME280;109;19.806;-70.704;2023-02-22T14:59:22;102129.06;;;25.57;55.40
250;BME280;109;19.806;-70.704;2023-02-22T15:02:06;102132.63;;;25.58;54.37
250;BME280;109;19.806;-70.704;2023-02-22T15:04:35;102132.28;;;25.67;54.42
250;BME280;109;19.806;-70.704;2023-02-22T15:07:29;102133.31;;;25.63;53.59
250;BME280;109;19.806;-70.704;2023-02-22T15:10:18;102120.78;;;25.88;54.86
250;BME280;109;19.806;-70.704;2023-02-22T15:13:02;102125.53;;;25.80;54.86
250;BME280;109;19.806;-70.704;2023-02-22T15:15:40;102132.59;;;25.83;53.82
250;BME280;109;19.806;-70.704;2023-02-22T15:18:42;102132.59;;;25.83;53.01
250;BME280;109;19.806;-70.704;2023-02-22T15:21:17;102126.03;;;25.91;52.35
250;BME280;109;19.806;-70.704;2023-02-22T15:23:50;102113.09;;;26.02;52.34
250;BME280;109;19.806;-70.704;2023-02-22T15:26:36;102118.59;;;25.99;51.88
250;BME280;109;19.806;-70.704;2023-02-22T15:29:19;102119.16;;;26.31;51.49
250;BME280;109;19.806;-70.704;2023-02-22T15:31:48;102121.31;;;26.66;51.19
250;BME280;109;19.806;-70.704;2023-02-22T15:36:48;102105.72;;;26.31;51.63
250;BME280;109;19.806;-70.704;2023-02-22T15:39:30;102100.72;;;26.45;52.80
250;BME280;109;19.806;-70.704;2023-02-22T15:42:10;102100.03;;;26.83;52.48
250;BME280;109;19.806;-70.704;2023-02-22T15:44:48;102107.03;;;26.44;52.97
250;BME280;109;19.806;-70.704;2023-02-22T15:47:22;102099.22;;;26.81;52.58
250;BME280;109;19.806;-70.704;2023-02-22T15:50:19;102097.47;;;26.59;52.13
250;BME280;109;19.806;-70.704;2023-02-22T15:55:43;102087.81;;;26.76;53.39
250;BME280;109;19.806;-70.704;2023-02-22T16:00:48;102091.16;;;26.38;54.16
250;BME280;109;19.806;-70.704;2023-02-22T16:03:20;102088.13;;;26.47;55.15
250;BME280;109;19.806;-70.704;2023-02-22T16:05:57;102082.75;;;25.52;56.65
250;BME280;109;19.806;-70.704;2023-02-22T16:08:34;102079.84;;;25.08;57.73
250;BME280;109;19.806;-70.704;2023-02-22T16:11:07;102077.22;;;25.07;57.57
250;BME280;109;19.806;-70.704;2023-02-22T16:13:40;102067.00;;;25.18;58.25
250;BME280;109;19.806;-70.704;2023-02-22T16:18:42;102070.22;;;24.77;58.10
250;BME280;109;19.806;-70.704;2023-02-22T16:21:17;102063.84;;;25.32;57.50
250;BME280;109;19.806;-70.704;2023-02-22T16:23:54;102060.34;;;25.55;57.98
250;BME280;109;19.806;-70.704;2023-02-22T16:26:22;102055.69;;;25.60;57.88
250;BME280;109;19.806;-70.704;2023-02-22T16:28:53;102046.56;;;25.64;58.28
250;BME280;109;19.806;-70.704;2023-02-22T16:31:22;102046.56;;;25.64;58.20
250;BME280;109;19.806;-70.704;2023-02-22T16:33:51;102032.25;;;25.88;58.07